createdAt,value
2019-01-21T00:02:35.889Z,7.91
2019-01-21T00:05:42.717Z,7.83
2019-01-21T00:08:48.422Z,7.89
2019-01-21T00:11:54.131Z,7.81
2019-01-21T00:14:59.839Z,8.00
2019-01-21T00:18:06.219Z,7.86
2019-01-21T00:21:11.968Z,7.99
2019-01-21T00:24:17.732Z,7.85
2019-01-21T00:27:24.517Z,7.35
2019-01-21T00:30:30.239Z,7.70
2019-01-21T00:33:35.943Z,7.27
2019-01-21T00:36:41.648Z,7.10
2019-01-21T00:39:47.356Z,6.31
2019-01-21T00:42:53.176Z,6.68
2019-01-21T00:45:58.889Z,7.02
2019-01-21T00:49:04.717Z,7.14
2019-01-21T00:52:10.445Z,7.29
2019-01-21T00:55:16.348Z,7.33
2019-01-21T00:58:22.265Z,7.37
2019-01-21T01:01:28.054Z,6.73
2019-01-21T01:04:33.752Z,6.72
2019-01-21T01:07:40.389Z,7.01
2019-01-21T01:10:46.092Z,6.96
2019-01-21T01:13:51.767Z,7.35
2019-01-21T01:16:57.501Z,7.41
2019-01-21T01:20:03.327Z,7.25
2019-01-21T01:23:09.158Z,7.41
2019-01-21T01:26:14.872Z,7.34
2019-01-21T01:29:20.601Z,7.28
2019-01-21T01:32:26.311Z,7.28
2019-01-21T01:35:33.121Z,7.35
2019-01-21T01:38:38.839Z,7.06
2019-01-21T01:41:44.575Z,7.17
2019-01-21T01:44:50.513Z,7.24
2019-01-21T01:48:03.108Z,7.24
2019-01-21T01:51:08.974Z,6.83
2019-01-21T01:54:14.820Z,6.85
2019-01-21T01:57:20.726Z,6.86
2019-01-21T02:00:26.683Z,7.00
2019-01-21T02:03:32.376Z,6.97
2019-01-21T02:06:38.165Z,6.92
2019-01-21T02:09:43.983Z,6.99
2019-01-21T02:12:49.888Z,7.15
2019-01-21T02:15:56.694Z,7.03
2019-01-21T02:19:02.780Z,7.04
2019-01-21T02:22:09.399Z,6.99
2019-01-21T02:25:15.635Z,7.09
2019-01-21T02:28:27.757Z,7.13
2019-01-21T02:31:58.430Z,7.10
2019-01-21T02:35:29.256Z,7.18
2019-01-21T02:39:20.419Z,7.16
2019-01-21T02:42:42.717Z,7.07
2019-01-21T02:47:02.565Z,7.05
2019-01-21T02:50:41.547Z,6.89
2019-01-21T02:54:27.907Z,6.91
2019-01-21T02:58:07.576Z,6.80
2019-01-21T03:01:51.678Z,6.59
2019-01-21T03:05:34.827Z,6.43
2019-01-21T03:09:27.281Z,6.62
2019-01-21T03:13:25.864Z,6.79
2019-01-21T03:17:07.742Z,6.61
2019-01-21T03:20:48.625Z,6.65
2019-01-21T03:24:56.167Z,6.76
2019-01-21T03:28:37.248Z,6.74
2019-01-21T03:32:24.629Z,6.71
2019-01-21T03:36:02.471Z,6.80
2019-01-21T03:39:46.107Z,6.92
2019-01-21T03:42:59.131Z,6.73
2019-01-21T03:46:21.201Z,6.50
2019-01-21T03:49:44.437Z,6.59
2019-01-21T03:53:26.862Z,5.90
2019-01-21T03:57:08.889Z,5.98
2019-01-21T04:00:23.373Z,5.91
2019-01-21T04:04:05.641Z,6.18
2019-01-21T04:07:42.651Z,6.10
2019-01-21T04:11:26.524Z,6.23
2019-01-21T04:14:56.483Z,6.25
2019-01-21T04:18:48.148Z,6.41
2019-01-21T04:22:21.126Z,6.40
2019-01-21T04:26:19.567Z,6.58
2019-01-21T04:30:13.965Z,6.68
2019-01-21T04:34:15.490Z,6.76
2019-01-21T04:38:05.801Z,6.71
2019-01-21T04:41:21.576Z,6.61
2019-01-21T04:44:54.373Z,6.58
2019-01-21T04:48:21.621Z,6.31
2019-01-21T04:52:10.259Z,6.55
2019-01-21T04:55:44.637Z,6.38
2019-01-21T04:59:37.290Z,5.64
2019-01-21T05:03:54.306Z,5.95
2019-01-21T05:07:26.577Z,6.10
2019-01-21T05:11:20.822Z,6.45
2019-01-21T05:15:07.227Z,6.14
2019-01-21T05:18:43.520Z,5.89
2019-01-21T05:22:19.303Z,5.97
2019-01-21T05:25:52.603Z,5.52
2019-01-21T05:29:34.894Z,5.76
2019-01-21T05:33:02.294Z,5.21
2019-01-21T05:36:44.608Z,5.21
2019-01-21T05:40:17.326Z,5.13
2019-01-21T05:44:05.859Z,5.36
2019-01-21T05:47:57.008Z,4.58
2019-01-21T05:51:40.943Z,4.76
2019-01-21T05:55:21.244Z,4.37
2019-01-21T05:59:13.479Z,4.69
2019-01-21T06:03:11.961Z,4.31
2019-01-21T06:07:07.483Z,4.59
2019-01-21T06:10:28.284Z,4.63
2019-01-21T06:14:32.770Z,4.80
2019-01-21T06:17:56.066Z,4.89
2019-01-21T06:21:42.134Z,5.00
2019-01-21T06:25:44.647Z,5.15
2019-01-21T06:29:28.207Z,5.23
2019-01-21T06:33:06.406Z,5.39
2019-01-21T06:36:58.879Z,5.77
2019-01-21T06:40:50.121Z,6.24
2019-01-21T06:44:31.553Z,5.81
2019-01-21T06:48:23.944Z,6.35
2019-01-21T06:51:54.953Z,6.31
2019-01-21T06:55:53.735Z,5.62
2019-01-21T06:59:23.881Z,5.93
2019-01-21T07:02:55.369Z,6.28
2019-01-21T07:06:40.584Z,6.30
2019-01-21T07:10:09.884Z,6.86
2019-01-21T07:13:49.096Z,6.80
2019-01-21T07:17:04.474Z,6.66
2019-01-21T07:20:56.994Z,7.22
2019-01-21T07:24:43.250Z,6.91
2019-01-21T07:28:23.243Z,6.90
2019-01-21T07:31:35.202Z,6.53
2019-01-21T07:35:26.297Z,7.07
2019-01-21T07:38:56.312Z,6.87
2019-01-21T07:42:31.491Z,6.51
2019-01-21T07:46:14.328Z,6.74
2019-01-21T07:50:03.943Z,7.14
2019-01-21T07:53:42.442Z,7.44
2019-01-21T07:57:41.826Z,7.95
2019-01-21T08:01:27.249Z,8.35
2019-01-21T08:05:24.763Z,8.46
2019-01-21T08:09:10.131Z,8.78
2019-01-21T08:12:53.769Z,9.18
2019-01-21T08:16:33.176Z,9.75
2019-01-21T08:20:17.238Z,10.44
2019-01-21T08:23:58.431Z,10.58
2019-01-21T08:27:38.171Z,10.16
2019-01-21T08:31:14.501Z,10.50
2019-01-21T08:34:38.934Z,10.94
2019-01-21T08:38:40.743Z,11.11
2019-01-21T08:42:39.374Z,11.41
2019-01-21T08:46:29.503Z,11.94
2019-01-21T08:50:01.525Z,11.68
2019-01-21T08:53:23.345Z,11.93
2019-01-21T08:56:59.492Z,11.97
2019-01-21T09:01:04.163Z,12.30
2019-01-21T09:04:56.401Z,12.62
2019-01-21T09:08:37.935Z,12.84
2019-01-21T09:12:33.483Z,12.92
2019-01-21T09:16:11.784Z,12.96
2019-01-21T09:19:49.000Z,13.35
2019-01-21T09:23:38.746Z,13.52
2019-01-21T09:27:12.469Z,13.93
2019-01-21T09:30:37.297Z,14.08
2019-01-21T09:34:23.009Z,14.38
2019-01-21T09:38:33.634Z,14.31
2019-01-21T09:41:59.237Z,14.61
2019-01-21T09:46:13.125Z,14.78
2019-01-21T09:49:16.933Z,15.24
2019-01-21T09:52:24.032Z,14.90
2019-01-21T09:55:30.165Z,15.02
2019-01-21T09:58:36.082Z,15.16
2019-01-21T10:01:42.780Z,15.52
2019-01-21T10:05:03.644Z,15.76
2019-01-21T10:08:33.952Z,15.72
2019-01-21T10:12:35.415Z,15.53
2019-01-21T10:16:00.585Z,15.61
2019-01-21T10:19:50.735Z,15.55
2019-01-21T10:23:14.426Z,15.74
2019-01-21T10:27:06.115Z,15.69
2019-01-21T10:30:43.907Z,15.94
2019-01-21T10:34:34.039Z,16.10
2019-01-21T10:38:28.428Z,15.99
2019-01-21T10:42:04.161Z,16.10
2019-01-21T10:45:48.307Z,16.16
2019-01-21T10:49:20.191Z,16.70
2019-01-21T10:53:09.784Z,16.83
2019-01-21T10:56:39.721Z,16.78
2019-01-21T11:00:29.568Z,16.73
2019-01-21T11:04:20.656Z,16.89
2019-01-21T11:08:09.292Z,16.79
2019-01-21T11:11:43.267Z,16.50
2019-01-21T11:15:12.959Z,16.72
2019-01-21T11:19:01.315Z,17.00
2019-01-21T11:22:23.379Z,16.28
2019-01-21T11:26:05.802Z,15.92
2019-01-21T11:29:58.033Z,16.42
2019-01-21T11:33:29.830Z,16.65
2019-01-21T11:36:48.163Z,16.49
2019-01-21T11:40:20.904Z,16.76
2019-01-21T11:44:06.101Z,16.81
2019-01-21T11:47:45.872Z,16.52
2019-01-21T11:51:44.310Z,16.51
2019-01-21T11:55:22.607Z,16.57
2019-01-21T11:58:59.490Z,16.77
2019-01-21T12:02:41.960Z,17.06
2019-01-21T12:06:18.994Z,17.03
2019-01-21T12:09:48.518Z,16.77
2019-01-21T12:13:23.610Z,16.74
2019-01-21T12:17:11.696Z,17.05
2019-01-21T12:21:09.941Z,17.13
2019-01-21T12:24:30.714Z,17.37
2019-01-21T12:28:10.341Z,17.21
2019-01-21T12:31:41.715Z,17.01
2019-01-21T12:35:21.314Z,16.85
2019-01-21T12:39:05.574Z,17.03
2019-01-21T12:42:26.131Z,16.88
2019-01-21T12:45:56.649Z,16.63
2019-01-21T12:49:20.933Z,16.45
2019-01-21T12:52:37.767Z,16.64
2019-01-21T12:56:08.785Z,16.81
2019-01-21T12:59:43.056Z,16.56
2019-01-21T13:03:44.557Z,16.47
2019-01-21T13:07:27.058Z,16.71
2019-01-21T13:11:41.077Z,16.67
2019-01-21T13:15:40.398Z,16.86
2019-01-21T13:19:21.559Z,16.59
2019-01-21T13:23:10.879Z,16.62
2019-01-21T13:26:47.452Z,15.99
2019-01-21T13:30:34.472Z,15.38
2019-01-21T13:34:21.489Z,15.75
2019-01-21T13:37:53.090Z,15.48
2019-01-21T13:41:51.807Z,15.53
2019-01-21T13:45:48.786Z,15.45
2019-01-21T13:49:25.622Z,15.33
2019-01-21T13:53:25.952Z,15.09
2019-01-21T13:56:43.572Z,15.07
2019-01-21T14:00:20.795Z,14.59
2019-01-21T14:04:05.618Z,14.59
2019-01-21T14:07:50.594Z,14.57
2019-01-21T14:11:46.556Z,14.51
2019-01-21T14:15:31.344Z,14.42
2019-01-21T14:19:26.177Z,14.37
2019-01-21T14:23:15.798Z,14.36
2019-01-21T14:27:13.986Z,14.15
2019-01-21T14:30:50.083Z,13.58
2019-01-21T14:34:26.459Z,13.29
2019-01-21T14:38:08.566Z,13.18
2019-01-21T14:42:10.859Z,12.87
2019-01-21T14:46:01.946Z,12.58
2019-01-21T14:49:46.474Z,12.52
2019-01-21T14:53:30.757Z,12.37
2019-01-21T14:57:16.692Z,12.20
2019-01-21T15:00:56.960Z,12.04
2019-01-21T15:04:38.065Z,11.95
2019-01-21T15:07:57.236Z,12.01
2019-01-21T15:11:28.697Z,11.90
2019-01-21T15:15:22.557Z,11.84
2019-01-21T15:19:01.411Z,11.17
2019-01-21T15:22:42.176Z,11.31
2019-01-21T15:26:28.146Z,10.89
2019-01-21T15:29:59.859Z,10.61
2019-01-21T15:33:49.445Z,10.65
2019-01-21T15:37:35.855Z,10.46
2019-01-21T15:41:22.183Z,10.54
2019-01-21T15:45:05.740Z,9.43
2019-01-21T15:48:40.705Z,9.14
2019-01-21T15:52:26.386Z,8.94
2019-01-21T15:55:52.521Z,8.95
2019-01-21T15:59:33.844Z,8.97
2019-01-21T16:03:07.745Z,8.93
2019-01-21T16:06:34.912Z,8.79
2019-01-21T16:10:07.457Z,8.65
2019-01-21T16:13:52.405Z,8.86
2019-01-21T16:17:32.641Z,8.66
2019-01-21T16:21:18.746Z,8.54
2019-01-21T16:25:04.921Z,8.41
2019-01-21T16:28:47.967Z,8.64
2019-01-21T16:32:31.568Z,8.94
2019-01-21T16:36:12.868Z,8.23
2019-01-21T16:40:15.129Z,8.35
2019-01-21T16:43:20.926Z,8.29
2019-01-21T16:46:26.650Z,8.06
2019-01-21T16:49:32.373Z,8.13
2019-01-21T16:52:38.231Z,8.00
2019-01-21T16:55:45.505Z,7.87
2019-01-21T16:58:51.319Z,8.25
2019-01-21T17:01:57.128Z,8.06
2019-01-21T17:05:02.942Z,8.29
2019-01-21T17:08:08.919Z,8.65
2019-01-21T17:11:14.768Z,8.47
2019-01-21T17:14:20.538Z,8.36
2019-01-21T17:17:26.228Z,8.38
2019-01-21T17:20:32.048Z,8.63
2019-01-21T17:23:37.775Z,8.52
2019-01-21T17:26:43.625Z,8.50
2019-01-21T17:29:49.357Z,8.60
2019-01-21T17:32:55.070Z,8.30
2019-01-21T17:36:00.895Z,8.49
2019-01-21T17:39:09.257Z,8.50
2019-01-21T17:42:15.384Z,8.28
2019-01-21T17:45:21.361Z,8.10
2019-01-21T17:48:27.091Z,8.06
2019-01-21T17:51:35.413Z,7.82
2019-01-21T17:54:41.276Z,8.20
2019-01-21T17:57:47.221Z,8.33
2019-01-21T18:00:52.986Z,8.27
2019-01-21T18:03:58.761Z,8.03
2019-01-21T18:07:04.605Z,8.13
2019-01-21T18:10:13.669Z,8.04
2019-01-21T18:13:19.505Z,8.33
2019-01-21T18:16:26.240Z,7.98
2019-01-21T18:19:31.956Z,8.39
2019-01-21T18:22:37.657Z,8.03
2019-01-21T18:25:43.382Z,8.13
2019-01-21T18:28:49.106Z,8.23
2019-01-21T18:31:54.951Z,8.27
2019-01-21T18:35:00.749Z,8.31
2019-01-21T18:38:07.249Z,7.97
2019-01-21T18:41:13.168Z,8.26
2019-01-21T18:44:18.903Z,7.92
2019-01-21T18:47:24.714Z,7.90
2019-01-21T18:50:33.750Z,7.86
2019-01-21T18:53:39.563Z,7.64
2019-01-21T18:56:45.277Z,7.59
2019-01-21T18:59:50.997Z,7.28
2019-01-21T19:02:57.803Z,7.23
2019-01-21T19:06:03.560Z,6.99
2019-01-21T19:09:10.130Z,7.08
2019-01-21T19:12:16.569Z,6.96
2019-01-21T19:15:40.625Z,6.68
2019-01-21T19:18:46.340Z,7.04
2019-01-21T19:21:53.756Z,6.88
2019-01-21T19:24:59.597Z,6.81
2019-01-21T19:28:05.433Z,6.67
2019-01-21T19:31:11.477Z,6.38
2019-01-21T19:34:18.193Z,6.41
2019-01-21T19:37:24.187Z,6.46
2019-01-21T19:40:30.151Z,6.48
2019-01-21T19:43:35.851Z,6.27
2019-01-21T19:46:44.293Z,6.53
2019-01-21T19:49:50.327Z,6.51
2019-01-21T19:52:56.259Z,6.29
2019-01-21T19:56:01.977Z,6.20
2019-01-21T19:59:07.778Z,6.10
2019-01-21T20:02:13.483Z,6.17
2019-01-21T20:05:19.304Z,6.04
2019-01-21T20:08:26.389Z,6.46
2019-01-21T20:11:34.990Z,6.09
2019-01-21T20:14:39.856Z,6.32
2019-01-21T20:17:46.225Z,6.16
2019-01-21T20:20:52.110Z,6.00
2019-01-21T20:23:57.839Z,5.85
2019-01-21T20:27:03.701Z,6.07
2019-01-21T20:30:11.620Z,6.23
2019-01-21T20:33:17.461Z,6.13
2019-01-21T20:36:23.304Z,6.33
2019-01-21T20:39:29.136Z,6.62
2019-01-21T20:42:35.032Z,6.46
2019-01-21T20:45:40.970Z,5.68
2019-01-21T20:48:46.691Z,6.01
2019-01-21T20:51:52.518Z,6.13
2019-01-21T20:54:58.273Z,5.92
2019-01-21T20:58:04.532Z,5.93
2019-01-21T21:01:10.246Z,5.83
2019-01-21T21:04:16.098Z,5.74
2019-01-21T21:07:21.830Z,5.63
2019-01-21T21:10:27.584Z,5.38
2019-01-21T21:13:33.311Z,5.13
2019-01-21T21:16:39.185Z,5.32
2019-01-21T21:19:44.923Z,5.19
2019-01-21T21:22:50.673Z,5.34
2019-01-21T21:25:56.367Z,5.25
2019-01-21T21:29:02.096Z,5.41
2019-01-21T21:32:07.852Z,5.31
2019-01-21T21:35:13.773Z,5.35
2019-01-21T21:38:19.683Z,5.04
2019-01-21T21:41:25.586Z,5.33
2019-01-21T21:44:31.304Z,5.17
2019-01-21T21:47:37.055Z,4.87
2019-01-21T21:50:43.148Z,4.82
2019-01-21T21:53:48.899Z,4.93
2019-01-21T21:56:54.926Z,4.85
2019-01-21T22:00:01.759Z,4.81
2019-01-21T22:03:07.995Z,5.02
2019-01-21T22:06:13.966Z,4.68
2019-01-21T22:09:19.721Z,5.21
2019-01-21T22:12:25.478Z,5.44
2019-01-21T22:15:31.251Z,5.04
2019-01-21T22:18:37.127Z,5.18
2019-01-21T22:21:42.867Z,5.03
2019-01-21T22:24:48.977Z,5.33
2019-01-21T22:27:54.708Z,5.40
2019-01-21T22:31:00.560Z,5.47
2019-01-21T22:34:06.504Z,5.55
2019-01-21T22:37:12.228Z,5.21
2019-01-21T22:40:19.845Z,5.21
2019-01-21T22:43:25.704Z,5.35
2019-01-21T22:46:31.424Z,5.37
2019-01-21T22:49:37.171Z,5.09
2019-01-21T22:52:42.971Z,4.96
2019-01-21T22:55:48.849Z,5.06
2019-01-21T22:58:54.574Z,5.12
2019-01-21T23:02:00.554Z,5.06
2019-01-21T23:05:07.757Z,4.67
2019-01-21T23:08:13.588Z,4.83
2019-01-21T23:11:19.320Z,5.15
2019-01-21T23:14:25.141Z,4.86
2019-01-21T23:17:30.978Z,5.04
2019-01-21T23:20:36.783Z,5.06
2019-01-21T23:23:42.968Z,5.02
2019-01-21T23:26:48.714Z,5.35
2019-01-21T23:29:54.439Z,5.10
2019-01-21T23:33:01.342Z,5.31
2019-01-21T23:36:07.254Z,4.44
2019-01-21T23:39:12.977Z,4.76
2019-01-21T23:42:19.243Z,4.93
2019-01-21T23:45:25.061Z,4.55
2019-01-21T23:48:30.761Z,5.14
2019-01-21T23:51:36.513Z,4.39
2019-01-21T23:54:42.227Z,5.02
2019-01-21T23:57:48.224Z,4.94
